Time;durP1;ratioP1;P1;durP2;ratioP2;P2;SDS_P1;SDS_P2;PMS_P1;PMS_P2;Temp;Humidity;BMP_temperature;BMP_pressure;BME280_temperature;BME280_humidity;BME280_pressure;Samples;Min_cycle;Max_cycle;Signal;HPM_P1;HPM_P2
2023/11/22 00:01:29;;;;;;;;;;;18.40;71.70;;;;;;5083165;28;19908;-37
2023/11/22 00:03:55;;;;;;;;;;;18.40;71.70;;;;;;5083760;28;19957;-37
2023/11/22 00:06:21;;;;;;;;;;;18.40;71.50;;;;;;5084053;28;19913;-37
2023/11/22 00:08:47;;;;;;;;;;;18.40;71.50;;;;;;5083205;28;19909;-37
2023/11/22 00:11:16;;;;;;;;;;;18.40;71.50;;;;;;5079945;28;19927;-36
2023/11/22 00:13:42;;;;;;;;;;;18.40;71.60;;;;;;5072660;28;19947;-36
2023/11/22 00:16:08;;;;;;;;;;;18.40;71.60;;;;;;5087532;28;19912;-36
2023/11/22 00:18:37;;;;;;;;;;;18.40;71.60;;;;;;5075300;28;19913;-36
2023/11/22 00:21:03;;;;;;;;;;;18.40;71.60;;;;;;5082907;28;19923;-36
2023/11/22 00:23:30;;;;;;;;;;;18.40;71.70;;;;;;5089074;28;19908;-36
2023/11/22 00:25:56;;;;;;;;;;;18.40;71.60;;;;;;5083367;28;19912;-36
2023/11/22 00:28:22;;;;;;;;;;;18.40;71.60;;;;;;5083598;28;19918;-36
2023/11/22 00:30:48;;;;;;;;;;;18.40;71.60;;;;;;5083047;28;19955;-36
2023/11/22 00:33:14;;;;;;;;;;;18.40;71.60;;;;;;5076441;28;19944;-36
2023/11/22 00:35:40;;;;;;;;;;;18.40;71.60;;;;;;5083098;28;19924;-36
2023/11/22 00:38:06;;;;;;;;;;;18.40;71.50;;;;;;5083257;28;19919;-36
2023/11/22 00:40:32;;;;;;;;;;;18.40;71.60;;;;;;5082915;28;19908;-36
2023/11/22 00:42:58;;;;;;;;;;;18.40;71.60;;;;;;5083025;28;19920;-36
2023/11/22 00:45:24;;;;;;;;;;;18.50;71.70;;;;;;5081529;28;19964;-36
2023/11/22 00:47:50;;;;;;;;;;;18.40;71.60;;;;;;5082414;28;20010;-36
2023/11/22 00:50:19;;;;;;;;;;;18.40;71.60;;;;;;5082733;28;19909;-36
2023/11/22 00:52:46;;;;;;;;;;;18.40;71.70;;;;;;5082641;28;19969;-36
2023/11/22 00:55:12;;;;;;;;;;;18.40;71.70;;;;;;5115347;28;19914;-36
2023/11/22 00:57:38;;;;;;;;;;;18.40;72.40;;;;;;5082878;28;19980;-35
2023/11/22 01:00:05;;;;;;;;;;;18.40;71.70;;;;;;5081373;28;19908;-35
2023/11/22 01:02:31;;;;;;;;;;;18.40;71.60;;;;;;5083181;28;19972;-36
2023/11/22 01:04:57;;;;;;;;;;;18.40;71.70;;;;;;5082568;28;19908;-36
2023/11/22 01:07:22;;;;;;;;;;;18.50;71.70;;;;;;5082337;28;19912;-36
2023/11/22 01:09:48;;;;;;;;;;;18.50;71.70;;;;;;5082535;28;19940;-36
2023/11/22 01:12:14;;;;;;;;;;;18.40;71.70;;;;;;5075949;28;19916;-36
2023/11/22 01:14:40;;;;;;;;;;;18.50;71.80;;;;;;5074268;28;19962;-35
2023/11/22 01:17:06;;;;;;;;;;;18.40;71.70;;;;;;5082328;28;19919;-36
2023/11/22 01:19:32;;;;;;;;;;;18.50;71.80;;;;;;5082873;28;19911;-36
2023/11/22 01:21:58;;;;;;;;;;;18.50;71.80;;;;;;5081942;28;19909;-36
2023/11/22 01:24:25;;;;;;;;;;;18.40;71.70;;;;;;5082715;28;19995;-35
2023/11/22 01:26:52;;;;;;;;;;;18.40;71.80;;;;;;5082349;28;19908;-35
2023/11/22 01:29:19;;;;;;;;;;;18.50;71.80;;;;;;5082325;28;19965;-35
2023/11/22 01:31:45;;;;;;;;;;;18.40;71.80;;;;;;5081967;28;19916;-35
2023/11/22 01:34:12;;;;;;;;;;;18.40;71.80;;;;;;5082519;28;19912;-36
2023/11/22 01:36:42;;;;;;;;;;;18.40;71.80;;;;;;5082673;28;19908;-36
2023/11/22 01:39:09;;;;;;;;;;;18.40;71.80;;;;;;5074546;28;19908;-36
2023/11/22 01:41:36;;;;;;;;;;;18.40;71.70;;;;;;5082556;28;19911;-36
2023/11/22 01:44:03;;;;;;;;;;;18.50;71.80;;;;;;5081632;28;20495;-35
2023/11/22 01:46:29;;;;;;;;;;;18.40;71.70;;;;;;5082399;28;20284;-36
2023/11/22 01:48:56;;;;;;;;;;;18.40;71.70;;;;;;5081720;28;19912;-35
2023/11/22 01:51:23;;;;;;;;;;;18.50;71.80;;;;;;5114964;28;19947;-36
2023/11/22 01:53:50;;;;;;;;;;;18.40;71.90;;;;;;5081551;28;19912;-36
2023/11/22 01:56:17;;;;;;;;;;;18.40;71.90;;;;;;5081939;28;19912;-36
2023/11/22 01:58:44;;;;;;;;;;;18.50;71.90;;;;;;5081966;28;19927;-35
2023/11/22 02:01:11;;;;;;;;;;;18.50;72.10;;;;;;5081971;28;20771;-36
2023/11/22 02:03:38;;;;;;;;;;;18.40;71.90;;;;;;5083343;28;20395;-35
2023/11/22 02:06:05;;;;;;;;;;;18.50;71.90;;;;;;5089278;28;19909;-35
2023/11/22 02:08:31;;;;;;;;;;;18.50;72.00;;;;;;5082495;28;19915;-36
2023/11/22 02:10:59;;;;;;;;;;;18.40;71.90;;;;;;5081485;28;19920;-36
2023/11/22 02:13:25;;;;;;;;;;;18.50;71.90;;;;;;5082194;28;20280;-36
2023/11/22 02:15:51;;;;;;;;;;;18.50;72.00;;;;;;5081865;28;19912;-34
2023/11/22 02:18:18;;;;;;;;;;;18.40;71.90;;;;;;5084577;28;20689;-35
2023/11/22 02:20:44;;;;;;;;;;;18.40;71.90;;;;;;5082073;28;19920;-35
2023/11/22 02:23:11;;;;;;;;;;;18.50;72.00;;;;;;5081847;28;19998;-35
2023/11/22 02:25:38;;;;;;;;;;;18.40;72.00;;;;;;5082009;28;20375;-35
2023/11/22 02:28:04;;;;;;;;;;;18.40;72.00;;;;;;5081632;28;19957;-36
2023/11/22 02:30:31;;;;;;;;;;;18.40;72.00;;;;;;5082006;28;19916;-35
2023/11/22 02:32:58;;;;;;;;;;;18.50;72.00;;;;;;5081283;28;19974;-36
2023/11/22 02:35:24;;;;;;;;;;;18.40;72.00;;;;;;5081428;28;19939;-36
2023/11/22 02:37:51;;;;;;;;;;;18.40;72.00;;;;;;5080137;28;20010;-35
2023/11/22 02:40:20;;;;;;;;;;;18.40;72.00;;;;;;5081823;28;19912;-35
2023/11/22 02:42:47;;;;;;;;;;;18.40;72.00;;;;;;5076757;28;19942;-36
2023/11/22 02:45:14;;;;;;;;;;;18.40;72.00;;;;;;5084772;28;19912;-35
2023/11/22 02:47:46;;;;;;;;;;;18.40;72.00;;;;;;5084604;28;19912;-35
2023/11/22 02:50:15;;;;;;;;;;;18.40;72.00;;;;;;5084273;28;19908;-36
2023/11/22 02:52:41;;;;;;;;;;;18.40;72.00;;;;;;5084451;28;19916;-35
2023/11/22 02:55:12;;;;;;;;;;;18.40;72.20;;;;;;5116877;28;19912;-35
2023/11/22 02:57:41;;;;;;;;;;;18.40;72.20;;;;;;5084829;28;19913;-35
2023/11/22 03:00:08;;;;;;;;;;;18.40;72.10;;;;;;5084639;28;19908;-36
2023/11/22 03:02:37;;;;;;;;;;;18.40;72.10;;;;;;5085230;28;19908;-35
2023/11/22 03:05:03;;;;;;;;;;;18.40;72.10;;;;;;5082187;28;20379;-35
2023/11/22 03:07:31;;;;;;;;;;;18.40;72.10;;;;;;5080513;28;19915;-35
2023/11/22 03:10:00;;;;;;;;;;;18.40;72.10;;;;;;5084442;28;20292;-35
2023/11/22 03:12:27;;;;;;;;;;;18.40;72.20;;;;;;5085108;28;19952;-36
2023/11/22 03:14:58;;;;;;;;;;;18.40;72.10;;;;;;5084295;28;19908;-35
2023/11/22 03:17:24;;;;;;;;;;;18.40;72.20;;;;;;5084695;28;19940;-35
2023/11/22 03:19:51;;;;;;;;;;;18.40;72.20;;;;;;5084433;28;19915;-35
2023/11/22 03:22:19;;;;;;;;;;;18.40;72.20;;;;;;5084810;28;19909;-35
2023/11/22 03:24:45;;;;;;;;;;;18.40;72.30;;;;;;5084048;28;19909;-35
2023/11/22 03:27:12;;;;;;;;;;;18.40;72.20;;;;;;5084611;28;19908;-35
2023/11/22 03:29:38;;;;;;;;;;;18.40;72.20;;;;;;5084879;28;19916;-35
2023/11/22 03:32:05;;;;;;;;;;;18.40;72.20;;;;;;5083628;28;19935;-35
2023/11/22 03:34:31;;;;;;;;;;;18.40;72.30;;;;;;5084071;28;19918;-35
2023/11/22 03:36:57;;;;;;;;;;;18.40;72.20;;;;;;5084067;28;19990;-35
2023/11/22 03:39:24;;;;;;;;;;;18.40;72.20;;;;;;5076729;28;20036;-35
2023/11/22 03:41:52;;;;;;;;;;;18.40;72.20;;;;;;5076649;28;19916;-36
2023/11/22 03:44:19;;;;;;;;;;;18.40;72.30;;;;;;5084400;28;20027;-36
2023/11/22 03:46:46;;;;;;;;;;;18.40;72.30;;;;;;5084145;28;19912;-36
2023/11/22 03:49:12;;;;;;;;;;;18.40;72.30;;;;;;5084201;28;19908;-36
2023/11/22 03:51:38;;;;;;;;;;;18.40;72.30;;;;;;5083428;28;19927;-36
2023/11/22 03:54:05;;;;;;;;;;;18.40;72.30;;;;;;5083683;28;19912;-36
2023/11/22 03:56:31;;;;;;;;;;;18.40;72.30;;;;;;5084438;28;20330;-35
2023/11/22 03:58:58;;;;;;;;;;;18.40;72.30;;;;;;5084845;28;19912;-35
2023/11/22 04:01:24;;;;;;;;;;;18.40;72.30;;;;;;5083600;28;19915;-35
2023/11/22 04:03:51;;;;;;;;;;;18.30;72.30;;;;;;5083267;28;20434;-36
2023/11/22 04:06:18;;;;;;;;;;;18.40;72.20;;;;;;5083820;28;19909;-35
2023/11/22 04:08:45;;;;;;;;;;;18.40;72.30;;;;;;5115644;28;19977;-36
2023/11/22 04:11:14;;;;;;;;;;;18.40;72.20;;;;;;5115561;28;19958;-35
2023/11/22 04:13:41;;;;;;;;;;;18.30;72.20;;;;;;5083867;28;19930;-36
2023/11/22 04:16:08;;;;;;;;;;;18.30;72.20;;;;;;5083242;28;19912;-36
2023/11/22 04:18:38;;;;;;;;;;;18.30;72.30;;;;;;5083332;28;19912;-35
2023/11/22 04:21:04;;;;;;;;;;;18.30;72.20;;;;;;5082783;28;19912;-35
2023/11/22 04:23:33;;;;;;;;;;;18.30;72.20;;;;;;5083786;28;19916;-35
2023/11/22 04:26:00;;;;;;;;;;;18.30;72.20;;;;;;5086363;28;19915;-35
2023/11/22 04:28:26;;;;;;;;;;;18.30;72.30;;;;;;5078750;28;19992;-35
2023/11/22 04:30:52;;;;;;;;;;;18.30;72.20;;;;;;5080719;28;19927;-35
2023/11/22 04:33:18;;;;;;;;;;;18.30;72.20;;;;;;5082953;28;20399;-35
2023/11/22 04:35:44;;;;;;;;;;;18.30;72.10;;;;;;5090632;28;19908;-35
2023/11/22 04:38:10;;;;;;;;;;;18.30;72.10;;;;;;5083037;28;19923;-35
2023/11/22 04:40:37;;;;;;;;;;;18.30;72.30;;;;;;5083367;28;19975;-35
2023/11/22 04:43:03;;;;;;;;;;;18.30;72.30;;;;;;5082672;28;19924;-35
2023/11/22 04:45:28;;;;;;;;;;;18.30;72.30;;;;;;5083369;28;19979;-35
2023/11/22 04:47:57;;;;;;;;;;;18.30;72.30;;;;;;5082538;28;19912;-35
2023/11/22 04:50:24;;;;;;;;;;;18.30;72.30;;;;;;5083200;28;20275;-35
2023/11/22 04:52:50;;;;;;;;;;;18.30;72.30;;;;;;5082839;28;20019;-35
2023/11/22 04:55:16;;;;;;;;;;;18.30;72.30;;;;;;5083583;28;19940;-35
2023/11/22 04:57:42;;;;;;;;;;;18.30;72.30;;;;;;5082983;28;19912;-35
2023/11/22 05:00:08;;;;;;;;;;;18.30;72.20;;;;;;5082546;28;19912;-36
2023/11/22 05:02:34;;;;;;;;;;;18.30;72.20;;;;;;5083021;28;19914;-35
2023/11/22 05:05:00;;;;;;;;;;;18.20;72.10;;;;;;5082077;28;19926;-35
2023/11/22 05:07:26;;;;;;;;;;;18.30;72.30;;;;;;5082534;28;19975;-35
2023/11/22 05:09:52;;;;;;;;;;;18.20;72.20;;;;;;5082721;28;19932;-35
2023/11/22 05:12:18;;;;;;;;;;;18.20;72.20;;;;;;5082707;28;19927;-36
2023/11/22 05:14:45;;;;;;;;;;;18.20;72.20;;;;;;5082117;28;19955;-35
2023/11/22 05:17:12;;;;;;;;;;;18.20;72.30;;;;;;5082478;28;19912;-35
2023/11/22 05:19:38;;;;;;;;;;;18.20;72.30;;;;;;5082498;28;19912;-35
2023/11/22 05:22:04;;;;;;;;;;;18.20;72.20;;;;;;5082546;28;20273;-35
2023/11/22 05:24:30;;;;;;;;;;;18.20;72.30;;;;;;5082411;28;19972;-35
2023/11/22 05:26:56;;;;;;;;;;;18.20;72.20;;;;;;5082058;28;19916;-36
2023/11/22 05:29:21;;;;;;;;;;;18.20;72.30;;;;;;5082595;28;19920;-35
2023/11/22 05:31:48;;;;;;;;;;;18.20;72.30;;;;;;5081998;28;20418;-36
2023/11/22 05:34:14;;;;;;;;;;;18.20;72.30;;;;;;5082421;28;19913;-35
2023/11/22 05:36:40;;;;;;;;;;;18.20;72.20;;;;;;5082827;28;19916;-35
2023/11/22 05:39:06;;;;;;;;;;;18.20;72.30;;;;;;5082205;28;19931;-35
2023/11/22 05:41:32;;;;;;;;;;;18.20;72.30;;;;;;5081979;28;19912;-35
2023/11/22 05:43:58;;;;;;;;;;;18.10;72.20;;;;;;5081568;28;19921;-35
2023/11/22 05:46:26;;;;;;;;;;;18.20;72.20;;;;;;5082148;28;19915;-35
2023/11/22 05:48:52;;;;;;;;;;;18.10;72.10;;;;;;5081904;28;20387;-35
2023/11/22 05:51:18;;;;;;;;;;;18.20;72.20;;;;;;5085619;28;19921;-35
2023/11/22 05:53:44;;;;;;;;;;;18.20;72.20;;;;;;5081989;28;20285;-35
2023/11/22 05:56:10;;;;;;;;;;;18.10;72.20;;;;;;5082520;28;19938;-36
2023/11/22 05:58:39;;;;;;;;;;;18.10;72.10;;;;;;5082236;28;19913;-35
2023/11/22 06:01:05;;;;;;;;;;;18.10;72.10;;;;;;5081510;28;20369;-35
2023/11/22 06:03:31;;;;;;;;;;;18.10;72.20;;;;;;5082071;28;19935;-35
2023/11/22 06:05:57;;;;;;;;;;;18.10;72.20;;;;;;5081975;28;19912;-35
2023/11/22 06:08:23;;;;;;;;;;;18.10;72.20;;;;;;5082413;28;19951;-35
2023/11/22 06:10:49;;;;;;;;;;;18.10;72.00;;;;;;5081825;28;19913;-35
2023/11/22 06:13:15;;;;;;;;;;;18.10;72.10;;;;;;5075035;28;19934;-35
2023/11/22 06:15:41;;;;;;;;;;;18.10;72.10;;;;;;5083970;28;19923;-37
2023/11/22 06:18:07;;;;;;;;;;;18.10;72.10;;;;;;5085427;28;19913;-35
2023/11/22 06:20:33;;;;;;;;;;;18.10;72.20;;;;;;5084707;28;19958;-35
2023/11/22 06:22:59;;;;;;;;;;;18.10;72.10;;;;;;5086586;28;19915;-35
2023/11/22 06:25:25;;;;;;;;;;;18.00;72.10;;;;;;5091463;28;20681;-35
2023/11/22 06:27:51;;;;;;;;;;;18.10;72.10;;;;;;5084972;28;20365;-35
2023/11/22 06:30:17;;;;;;;;;;;18.10;72.10;;;;;;5086092;28;20372;-36
2023/11/22 06:32:42;;;;;;;;;;;18.10;72.10;;;;;;5088850;28;20357;-35
2023/11/22 06:35:09;;;;;;;;;;;18.00;72.10;;;;;;5085386;28;19912;-35
2023/11/22 06:37:35;;;;;;;;;;;18.00;72.10;;;;;;5086294;28;19916;-35
2023/11/22 06:40:01;;;;;;;;;;;18.00;72.10;;;;;;5069393;28;19916;-36
2023/11/22 06:42:27;;;;;;;;;;;18.00;71.90;;;;;;5085439;28;19912;-35
2023/11/22 06:44:53;;;;;;;;;;;18.00;72.00;;;;;;5085053;28;19927;-35
2023/11/22 06:47:19;;;;;;;;;;;18.00;72.10;;;;;;5085360;28;19915;-36
2023/11/22 06:49:46;;;;;;;;;;;18.00;72.10;;;;;;5084913;28;19913;-35
2023/11/22 06:52:12;;;;;;;;;;;18.00;72.10;;;;;;5084662;28;19921;-35
2023/11/22 06:54:38;;;;;;;;;;;18.00;72.00;;;;;;5085441;28;20014;-36
2023/11/22 06:57:04;;;;;;;;;;;18.00;72.00;;;;;;5084824;28;19920;-35
2023/11/22 06:59:30;;;;;;;;;;;18.00;71.90;;;;;;5085132;28;20127;-35
2023/11/22 07:01:56;;;;;;;;;;;18.00;72.20;;;;;;5083954;28;19912;-35
2023/11/22 07:04:22;;;;;;;;;;;18.00;72.00;;;;;;5084780;28;19920;-35
2023/11/22 07:06:49;;;;;;;;;;;18.00;72.10;;;;;;5085001;28;19920;-36
2023/11/22 07:09:15;;;;;;;;;;;18.00;71.90;;;;;;5085569;28;19987;-35
2023/11/22 07:11:41;;;;;;;;;;;18.00;72.10;;;;;;5085221;28;20358;-35
2023/11/22 07:14:07;;;;;;;;;;;18.00;72.10;;;;;;5084479;28;19944;-35
2023/11/22 07:16:33;;;;;;;;;;;18.00;72.10;;;;;;5085258;28;19915;-35
2023/11/22 07:19:02;;;;;;;;;;;18.00;72.00;;;;;;5084208;28;19935;-35
2023/11/22 07:21:31;;;;;;;;;;;18.00;72.10;;;;;;5079396;28;20019;-35
2023/11/22 07:23:59;;;;;;;;;;;18.00;72.00;;;;;;5084590;28;19955;-35
2023/11/22 07:26:26;;;;;;;;;;;18.00;72.00;;;;;;5075995;28;20008;-35
2023/11/22 07:28:53;;;;;;;;;;;18.00;72.00;;;;;;5084290;28;19919;-35
2023/11/22 07:31:19;;;;;;;;;;;17.90;72.10;;;;;;5084553;28;19992;-35
2023/11/22 07:33:46;;;;;;;;;;;17.90;72.00;;;;;;5083774;28;19919;-35
2023/11/22 07:36:15;;;;;;;;;;;17.90;72.10;;;;;;5084497;28;19997;-35
2023/11/22 07:38:42;;;;;;;;;;;17.90;72.80;;;;;;5085017;28;19991;-35
2023/11/22 07:41:08;;;;;;;;;;;17.90;72.00;;;;;;5084430;28;20012;-35
2023/11/22 07:43:34;;;;;;;;;;;17.90;72.00;;;;;;5085294;28;19920;-35
2023/11/22 07:46:01;;;;;;;;;;;17.90;72.10;;;;;;5082825;28;19920;-35
2023/11/22 07:48:28;;;;;;;;;;;17.90;72.10;;;;;;5084426;28;19909;-35
2023/11/22 07:50:54;;;;;;;;;;;17.90;72.10;;;;;;5083675;28;19916;-35
2023/11/22 07:53:20;;;;;;;;;;;17.90;72.00;;;;;;5084591;28;19971;-35
2023/11/22 07:55:46;;;;;;;;;;;17.90;72.10;;;;;;5084325;28;19916;-35
2023/11/22 07:58:12;;;;;;;;;;;17.90;72.10;;;;;;5084143;28;19916;-35
2023/11/22 08:00:41;;;;;;;;;;;17.90;72.20;;;;;;5084601;28;20387;-35
2023/11/22 08:03:07;;;;;;;;;;;17.90;72.20;;;;;;5083708;28;19964;-35
2023/11/22 08:05:39;;;;;;;;;;;17.80;72.10;;;;;;5084376;28;19935;-35
2023/11/22 08:08:08;;;;;;;;;;;17.80;72.00;;;;;;5083301;28;19909;-35
2023/11/22 08:10:34;;;;;;;;;;;17.80;72.00;;;;;;5084234;28;19909;-35
2023/11/22 08:13:02;;;;;;;;;;;17.80;72.00;;;;;;5083338;28;20338;-35
2023/11/22 08:15:28;;;;;;;;;;;17.80;72.10;;;;;;5084055;28;19912;-35
2023/11/22 08:17:54;;;;;;;;;;;17.80;72.10;;;;;;5083608;28;20063;-35
2023/11/22 08:20:20;;;;;;;;;;;17.80;72.10;;;;;;5087000;28;19926;-35
2023/11/22 08:22:47;;;;;;;;;;;17.80;72.00;;;;;;5083027;28;19913;-35
2023/11/22 08:25:13;;;;;;;;;;;17.80;72.10;;;;;;5085570;28;19912;-35
2023/11/22 08:27:40;;;;;;;;;;;17.80;72.50;;;;;;5083018;28;19931;-35
2023/11/22 08:30:12;;;;;;;;;;;17.80;72.10;;;;;;5082651;28;19935;-35
2023/11/22 08:32:54;;;;;;;;;;;17.80;72.10;;;;;;5020700;28;19943;-35
2023/11/22 08:35:23;;;;;;;;;;;17.80;72.10;;;;;;5004973;28;20325;-35
2023/11/22 08:37:50;;;;;;;;;;;17.80;72.10;;;;;;5019169;28;19968;-35
2023/11/22 08:40:20;;;;;;;;;;;17.80;72.20;;;;;;5014457;28;19914;-35
2023/11/22 08:42:49;;;;;;;;;;;17.80;72.10;;;;;;5021059;28;19936;-35
2023/11/22 08:45:15;;;;;;;;;;;17.80;72.00;;;;;;5014188;28;20314;-35
2023/11/22 08:47:41;;;;;;;;;;;17.80;72.10;;;;;;5021539;28;19921;-35
2023/11/22 08:50:12;;;;;;;;;;;17.80;72.10;;;;;;5018937;28;19918;-35
2023/11/22 08:52:39;;;;;;;;;;;17.70;72.10;;;;;;5017238;28;20008;-35
2023/11/22 08:55:08;;;;;;;;;;;17.70;72.10;;;;;;5020936;28;19921;-35
2023/11/22 08:57:37;;;;;;;;;;;17.70;72.10;;;;;;5021098;28;19913;-35
2023/11/22 09:00:08;;;;;;;;;;;17.70;72.20;;;;;;5020523;28;20124;-35
2023/11/22 09:02:37;;;;;;;;;;;17.70;72.20;;;;;;5020622;28;19913;-36
2023/11/22 09:05:06;;;;;;;;;;;17.70;72.10;;;;;;5021004;28;19960;-35
2023/11/22 09:07:33;;;;;;;;;;;17.70;72.10;;;;;;5021576;28;19913;-35
2023/11/22 09:09:59;;;;;;;;;;;17.70;72.10;;;;;;5044865;28;19908;-35
2023/11/22 09:12:27;;;;;;;;;;;17.70;72.10;;;;;;5080748;28;19923;-35
2023/11/22 09:14:53;;;;;;;;;;;17.70;72.20;;;;;;5081512;28;19952;-35
2023/11/22 09:17:20;;;;;;;;;;;17.70;72.10;;;;;;5071772;28;19912;-36
2023/11/22 09:19:46;;;;;;;;;;;17.70;72.10;;;;;;5072352;28;19931;-35
2023/11/22 09:22:13;;;;;;;;;;;17.70;72.20;;;;;;5081819;28;19912;-39
2023/11/22 09:24:40;;;;;;;;;;;17.60;72.80;;;;;;5082321;28;19908;-35
2023/11/22 09:27:06;;;;;;;;;;;17.70;72.20;;;;;;5075189;28;19909;-35
2023/11/22 09:29:32;;;;;;;;;;;17.70;72.10;;;;;;5082984;28;19908;-35
2023/11/22 09:32:00;;;;;;;;;;;17.60;72.10;;;;;;5073832;28;19921;-35
2023/11/22 09:34:26;;;;;;;;;;;17.60;72.20;;;;;;5080132;28;19912;-35
2023/11/22 09:36:54;;;;;;;;;;;17.60;72.20;;;;;;5081715;28;19916;-35
2023/11/22 09:39:21;;;;;;;;;;;17.60;72.10;;;;;;5071435;28;19919;-35
2023/11/22 09:41:48;;;;;;;;;;;17.60;72.10;;;;;;5078760;28;19923;-35
2023/11/22 09:44:14;;;;;;;;;;;17.60;72.10;;;;;;5081709;28;19963;-35
2023/11/22 09:46:40;;;;;;;;;;;17.60;72.10;;;;;;5080761;28;19934;-35
2023/11/22 09:49:06;;;;;;;;;;;17.60;72.20;;;;;;5076124;28;19956;-35
2023/11/22 09:51:32;;;;;;;;;;;17.60;72.20;;;;;;5082192;28;20289;-35
2023/11/22 09:54:00;;;;;;;;;;;17.60;72.20;;;;;;5083773;28;19912;-34
2023/11/22 09:56:26;;;;;;;;;;;17.60;72.20;;;;;;5078880;28;19912;-35
2023/11/22 09:58:55;;;;;;;;;;;17.60;72.10;;;;;;5085539;28;20002;-35
2023/11/22 10:01:21;;;;;;;;;;;17.60;72.20;;;;;;5074622;28;19985;-35
2023/11/22 10:03:47;;;;;;;;;;;17.60;72.20;;;;;;5082270;28;19967;-35
2023/11/22 10:06:14;;;;;;;;;;;17.60;72.30;;;;;;5080605;28;19931;-35
2023/11/22 10:08:40;;;;;;;;;;;17.60;72.20;;;;;;5079373;28;19956;-35
2023/11/22 10:11:06;;;;;;;;;;;17.60;72.20;;;;;;5069739;28;19923;-35
2023/11/22 10:13:32;;;;;;;;;;;17.60;72.20;;;;;;5075969;28;19916;-35
2023/11/22 10:16:19;;;;;;;;;;;17.60;72.10;;;;;;5091378;28;19919;-36
2023/11/22 10:18:48;;;;;;;;;;;17.60;72.10;;;;;;5083067;28;19912;-35
2023/11/22 10:21:21;;;;;;;;;;;17.50;72.00;;;;;;5068350;28;20342;-36
2023/11/22 10:23:47;;;;;;;;;;;17.50;72.00;;;;;;5078032;28;19915;-35
2023/11/22 10:26:15;;;;;;;;;;;17.50;72.00;;;;;;5077640;28;19912;-35
2023/11/22 10:28:41;;;;;;;;;;;17.50;72.10;;;;;;5075254;28;19916;-35
2023/11/22 10:31:08;;;;;;;;;;;17.50;72.10;;;;;;5079321;28;19916;-35
2023/11/22 10:33:38;;;;;;;;;;;17.50;72.10;;;;;;5077436;28;19912;-34
2023/11/22 10:36:04;;;;;;;;;;;17.50;72.20;;;;;;5085205;28;19923;-35
2023/11/22 10:38:30;;;;;;;;;;;17.50;72.20;;;;;;5072719;28;19912;-35
2023/11/22 10:40:59;;;;;;;;;;;17.50;72.10;;;;;;5083518;28;19966;-35
2023/11/22 10:43:26;;;;;;;;;;;17.50;72.10;;;;;;5074065;28;19927;-35
2023/11/22 10:45:53;;;;;;;;;;;17.50;72.00;;;;;;5080483;28;19913;-35
2023/11/22 10:48:21;;;;;;;;;;;17.50;72.00;;;;;;5115820;28;19912;-35
2023/11/22 10:50:47;;;;;;;;;;;17.50;72.10;;;;;;5076437;28;19913;-35
2023/11/22 10:53:13;;;;;;;;;;;17.50;72.10;;;;;;5082270;28;19916;-35
2023/11/22 10:55:42;;;;;;;;;;;17.50;72.20;;;;;;5070396;28;19927;-36
2023/11/22 10:58:08;;;;;;;;;;;17.50;72.10;;;;;;5076117;28;19963;-35
2023/11/22 11:00:34;;;;;;;;;;;17.50;72.10;;;;;;5102267;28;20284;-35
2023/11/22 11:03:09;;;;;;;;;;;17.50;72.20;;;;;;5072911;28;19917;-37
2023/11/22 11:05:35;;;;;;;;;;;17.50;72.20;;;;;;5083543;28;19912;-36
2023/11/22 11:08:04;;;;;;;;;;;17.50;72.10;;;;;;5083207;28;19934;-35
2023/11/22 11:10:30;;;;;;;;;;;17.50;72.10;;;;;;5115349;28;19920;-35
2023/11/22 11:12:56;;;;;;;;;;;17.50;72.10;;;;;;5076837;28;19920;-35
2023/11/22 11:15:22;;;;;;;;;;;17.40;72.10;;;;;;5077445;28;19980;-35
2023/11/22 11:17:50;;;;;;;;;;;17.40;72.10;;;;;;5067463;28;19912;-35
2023/11/22 11:20:17;;;;;;;;;;;17.50;72.10;;;;;;5072856;28;20484;-35
2023/11/22 11:22:45;;;;;;;;;;;17.40;72.10;;;;;;5072847;28;20451;-35
2023/11/22 11:25:13;;;;;;;;;;;17.40;72.80;;;;;;5083495;28;19938;-35
2023/11/22 11:27:42;;;;;;;;;;;17.40;72.10;;;;;;5084069;28;19934;-35
2023/11/22 11:30:26;;;;;;;;;;;17.40;72.20;;;;;;5084010;28;19912;-35
2023/11/22 11:32:52;;;;;;;;;;;17.40;72.20;;;;;;5076000;28;19923;-35
2023/11/22 11:35:18;;;;;;;;;;;17.40;72.20;;;;;;5083565;28;19912;-35
2023/11/22 11:37:50;;;;;;;;;;;17.40;72.20;;;;;;5076303;28;19909;-35
2023/11/22 11:40:29;;;;;;;;;;;17.40;72.10;;;;;;5076232;28;19916;-35
2023/11/22 11:42:55;;;;;;;;;;;17.40;72.10;;;;;;5007776;28;2116979;-36
2023/11/22 11:45:21;;;;;;;;;;;17.40;72.10;;;;;;5066520;28;19923;-35
2023/11/22 11:47:47;;;;;;;;;;;17.40;72.10;;;;;;5074304;28;19944;-35
2023/11/22 11:50:13;;;;;;;;;;;17.40;72.10;;;;;;5076365;28;19976;-35
2023/11/22 11:52:39;;;;;;;;;;;17.40;72.10;;;;;;5071439;28;19917;-35
2023/11/22 11:55:06;;;;;;;;;;;17.40;72.20;;;;;;5080058;28;19947;-35
2023/11/22 11:57:32;;;;;;;;;;;17.40;72.10;;;;;;5073765;28;19912;-35
2023/11/22 11:59:59;;;;;;;;;;;17.40;72.20;;;;;;5074677;28;19948;-36
2023/11/22 12:02:25;;;;;;;;;;;17.40;72.20;;;;;;5084335;28;19912;-34
2023/11/22 12:04:54;;;;;;;;;;;17.40;72.20;;;;;;5083533;28;19912;-34
2023/11/22 12:07:20;;;;;;;;;;;17.40;72.20;;;;;;5080353;28;20015;-35
2023/11/22 12:09:47;;;;;;;;;;;17.40;72.10;;;;;;5082761;28;19908;-35
2023/11/22 12:12:13;;;;;;;;;;;17.40;72.10;;;;;;5083412;28;19977;-35
2023/11/22 12:14:43;;;;;;;;;;;17.40;72.10;;;;;;5082721;28;19913;-36
2023/11/22 12:17:09;;;;;;;;;;;17.40;72.10;;;;;;5083206;28;19909;-35
2023/11/22 12:19:35;;;;;;;;;;;17.40;72.20;;;;;;5074674;28;19919;-35
2023/11/22 12:22:02;;;;;;;;;;;17.30;72.20;;;;;;5085544;28;19916;-35
2023/11/22 12:24:28;;;;;;;;;;;17.30;72.20;;;;;;5089232;28;19919;-35
2023/11/22 12:26:55;;;;;;;;;;;17.30;72.20;;;;;;5082729;28;19908;-35
2023/11/22 12:29:23;;;;;;;;;;;17.30;72.20;;;;;;5067867;28;19916;-35
2023/11/22 12:31:55;;;;;;;;;;;17.30;72.10;;;;;;5081585;28;20286;-34
2023/11/22 12:34:21;;;;;;;;;;;17.30;72.20;;;;;;5076100;28;19916;-35
2023/11/22 12:36:48;;;;;;;;;;;17.30;72.10;;;;;;5081068;28;20284;-35
2023/11/22 12:39:17;;;;;;;;;;;17.30;72.20;;;;;;5075821;28;20008;-35
2023/11/22 12:41:45;;;;;;;;;;;17.30;72.10;;;;;;5083530;28;19912;-35
2023/11/22 12:44:12;;;;;;;;;;;17.30;72.10;;;;;;5073192;28;19924;-35
2023/11/22 12:46:45;;;;;;;;;;;17.30;72.10;;;;;;5078953;28;19912;-35
2023/11/22 12:49:11;;;;;;;;;;;17.30;72.10;;;;;;5083132;28;19982;-35
2023/11/22 12:51:38;;;;;;;;;;;17.30;72.00;;;;;;5083024;28;19959;-34
2023/11/22 12:54:04;;;;;;;;;;;17.30;72.10;;;;;;5082551;28;19916;-35
2023/11/22 12:56:30;;;;;;;;;;;17.30;72.30;;;;;;5083077;28;19909;-35
2023/11/22 12:58:56;;;;;;;;;;;17.30;72.30;;;;;;5081834;28;20001;-36
2023/11/22 13:01:22;;;;;;;;;;;17.30;72.30;;;;;;5083137;28;19912;-35
2023/11/22 13:03:49;;;;;;;;;;;17.30;72.30;;;;;;5082625;28;19995;-35
2023/11/22 13:06:17;;;;;;;;;;;17.30;72.30;;;;;;5082906;28;19912;-35
2023/11/22 13:08:43;;;;;;;;;;;17.30;72.30;;;;;;5075806;28;20041;-36
2023/11/22 13:11:13;;;;;;;;;;;17.30;72.20;;;;;;5075425;28;19942;-35
2023/11/22 13:13:39;;;;;;;;;;;17.30;72.30;;;;;;5081804;28;19958;-35
2023/11/22 13:16:05;;;;;;;;;;;17.30;72.30;;;;;;5075432;28;19933;-35
2023/11/22 13:18:31;;;;;;;;;;;17.30;72.30;;;;;;5082478;28;19999;-35
2023/11/22 13:21:00;;;;;;;;;;;17.30;72.10;;;;;;5081870;28;19912;-35
2023/11/22 13:23:27;;;;;;;;;;;17.30;72.30;;;;;;5073574;28;20464;-35
2023/11/22 13:25:53;;;;;;;;;;;17.30;72.20;;;;;;5082439;28;19912;-35
2023/11/22 13:28:19;;;;;;;;;;;17.30;72.30;;;;;;5082719;28;20596;-35
2023/11/22 13:30:46;;;;;;;;;;;17.20;72.30;;;;;;5082498;28;19957;-35
2023/11/22 13:33:12;;;;;;;;;;;17.20;72.30;;;;;;5082636;28;19959;-35
2023/11/22 13:35:39;;;;;;;;;;;17.20;72.30;;;;;;5082691;28;20361;-35
2023/11/22 13:38:10;;;;;;;;;;;17.20;72.30;;;;;;5075113;28;19912;-35
2023/11/22 13:40:40;;;;;;;;;;;17.20;72.20;;;;;;5082572;28;19912;-36
2023/11/22 13:43:09;;;;;;;;;;;17.20;72.10;;;;;;5081369;28;19921;-35
2023/11/22 13:45:37;;;;;;;;;;;17.20;72.30;;;;;;5076386;28;19983;-35
2023/11/22 13:48:06;;;;;;;;;;;17.20;72.30;;;;;;5088197;28;19916;-35
2023/11/22 13:50:35;;;;;;;;;;;17.20;72.10;;;;;;5082186;28;19920;-35
2023/11/22 13:53:03;;;;;;;;;;;17.20;72.20;;;;;;5077357;28;19926;-35
2023/11/22 13:55:30;;;;;;;;;;;17.20;72.30;;;;;;5082241;28;19912;-35
2023/11/22 13:57:57;;;;;;;;;;;17.20;72.20;;;;;;5081773;28;20007;-35
2023/11/22 14:00:24;;;;;;;;;;;17.20;72.20;;;;;;5081953;28;19913;-35
2023/11/22 14:02:57;;;;;;;;;;;17.20;72.10;;;;;;5081811;28;19959;-36
2023/11/22 14:05:24;;;;;;;;;;;17.20;72.10;;;;;;5069982;28;19912;-35
2023/11/22 14:07:53;;;;;;;;;;;17.20;72.20;;;;;;5081847;28;19975;-35
2023/11/22 14:10:22;;;;;;;;;;;17.20;72.20;;;;;;5075308;28;20009;-35
2023/11/22 14:12:51;;;;;;;;;;;17.20;72.30;;;;;;5082088;28;19975;-35
2023/11/22 14:15:19;;;;;;;;;;;17.20;72.30;;;;;;5068479;28;20391;-35